createdAt,value
2022-11-24T00:00:31.650Z,2.30
2022-11-24T00:02:58.555Z,2.30
2022-11-24T00:05:25.272Z,2.30
2022-11-24T00:07:52.062Z,2.40
2022-11-24T00:10:18.817Z,2.40
2022-11-24T00:12:45.551Z,2.50
2022-11-24T00:15:12.253Z,2.50
2022-11-24T00:17:38.881Z,2.50
2022-11-24T00:20:05.893Z,2.60
2022-11-24T00:22:32.573Z,2.60
2022-11-24T00:24:59.240Z,2.60
2022-11-24T00:27:25.890Z,2.70
2022-11-24T00:29:52.526Z,2.70
2022-11-24T00:32:19.172Z,2.70
2022-11-24T00:34:46.756Z,2.70
2022-11-24T00:37:13.462Z,2.60
2022-11-24T00:39:40.113Z,2.60
2022-11-24T00:42:06.787Z,2.60
2022-11-24T00:44:33.760Z,2.60
2022-11-24T00:47:00.658Z,2.70
2022-11-24T00:49:27.422Z,2.70
2022-11-24T00:51:54.164Z,2.70
2022-11-24T00:54:20.976Z,2.70
2022-11-24T00:56:47.627Z,2.70
2022-11-24T00:59:14.368Z,2.70
2022-11-24T01:01:42.424Z,2.70
2022-11-24T01:04:09.449Z,2.70
2022-11-24T01:06:36.317Z,2.80
2022-11-24T01:09:03.562Z,2.80
2022-11-24T01:11:51.458Z,2.90
2022-11-24T01:14:18.210Z,2.90
2022-11-24T01:16:44.855Z,2.90
2022-11-24T01:19:11.504Z,2.90
2022-11-24T01:21:38.180Z,2.90
2022-11-24T01:24:05.044Z,2.90
2022-11-24T01:26:31.711Z,2.90
2022-11-24T01:28:58.660Z,2.90
2022-11-24T01:31:26.620Z,2.90
2022-11-24T01:33:53.353Z,2.90
2022-11-24T01:36:20.229Z,2.90
2022-11-24T01:38:46.885Z,3.00
2022-11-24T01:41:16.547Z,2.90
2022-11-24T01:43:44.429Z,3.00
2022-11-24T01:46:14.219Z,3.00
2022-11-24T01:48:43.714Z,3.00
2022-11-24T01:51:13.375Z,3.10
2022-11-24T01:53:41.934Z,3.10
2022-11-24T01:56:09.072Z,3.20
2022-11-24T01:58:36.309Z,3.20
2022-11-24T02:01:03.079Z,3.20
2022-11-24T02:03:33.246Z,3.20
2022-11-24T02:06:02.693Z,3.20
2022-11-24T02:08:38.898Z,3.20
2022-11-24T02:11:06.040Z,3.30
2022-11-24T02:13:36.660Z,3.30
2022-11-24T02:16:03.670Z,3.40
2022-11-24T02:18:30.503Z,3.40
2022-11-24T02:20:57.877Z,3.50
2022-11-24T02:23:27.992Z,3.50
2022-11-24T02:25:57.474Z,3.50
2022-11-24T02:28:26.200Z,3.50
2022-11-24T02:30:53.150Z,3.50
2022-11-24T02:33:21.501Z,3.60
2022-11-24T02:35:48.138Z,3.60
2022-11-24T02:38:14.914Z,3.60
2022-11-24T02:40:43.942Z,3.60
2022-11-24T02:43:15.385Z,3.60
2022-11-24T02:45:42.068Z,3.60
2022-11-24T02:48:08.781Z,3.70
2022-11-24T02:50:35.568Z,3.70
2022-11-24T02:53:02.323Z,3.80
2022-11-24T02:55:28.992Z,3.90
2022-11-24T02:57:55.919Z,3.90
2022-11-24T03:00:22.798Z,3.90
2022-11-24T03:02:49.572Z,4.00
2022-11-24T03:05:16.391Z,4.00
2022-11-24T03:07:43.168Z,4.00
2022-11-24T03:10:10.371Z,4.00
2022-11-24T03:12:37.125Z,4.00
2022-11-24T03:15:04.298Z,4.00
2022-11-24T03:17:30.979Z,4.10
2022-11-24T03:20:02.954Z,4.10
2022-11-24T03:22:31.146Z,4.10
2022-11-24T03:24:57.878Z,4.10
2022-11-24T03:27:39.555Z,4.10
2022-11-24T03:30:06.699Z,4.10
2022-11-24T03:32:33.410Z,4.20
2022-11-24T03:35:00.197Z,4.20
2022-11-24T03:37:27.109Z,4.20
2022-11-24T03:39:53.783Z,4.30
2022-11-24T03:42:20.480Z,4.20
2022-11-24T03:44:47.237Z,4.20
2022-11-24T03:47:14.066Z,4.20
2022-11-24T03:49:41.485Z,4.20
2022-11-24T03:52:08.573Z,4.30
2022-11-24T03:54:35.455Z,4.30
2022-11-24T03:57:02.404Z,4.30
2022-11-24T03:59:29.057Z,4.30
2022-11-24T04:01:56.212Z,4.20
2022-11-24T04:04:22.982Z,4.20
2022-11-24T04:06:49.619Z,4.10
2022-11-24T04:09:16.401Z,4.10
2022-11-24T04:12:18.564Z,4.00
2022-11-24T04:14:45.226Z,4.00
2022-11-24T04:17:11.888Z,4.00
2022-11-24T04:19:38.548Z,4.00
2022-11-24T04:22:05.298Z,4.00
2022-11-24T04:24:32.002Z,4.00
2022-11-24T04:26:58.912Z,4.00
2022-11-24T04:29:25.597Z,4.10
2022-11-24T04:31:52.327Z,4.10
2022-11-24T04:34:19.037Z,4.10
2022-11-24T04:36:45.794Z,4.00
2022-11-24T04:39:25.422Z,4.00
2022-11-24T04:41:54.825Z,4.00
2022-11-24T04:44:21.586Z,4.00
2022-11-24T04:46:48.385Z,4.00
2022-11-24T04:49:15.241Z,4.00
2022-11-24T04:51:41.950Z,4.00
2022-11-24T04:54:10.171Z,4.00
2022-11-24T04:56:36.944Z,4.00
2022-11-24T04:59:07.986Z,4.10
2022-11-24T05:01:35.810Z,4.10
2022-11-24T05:04:02.745Z,4.00
2022-11-24T05:06:29.573Z,4.00
2022-11-24T05:08:56.558Z,4.00
2022-11-24T05:11:23.345Z,4.00
2022-11-24T05:13:50.021Z,4.00
2022-11-24T05:16:16.813Z,4.00
2022-11-24T05:18:43.567Z,4.00
2022-11-24T05:21:10.221Z,4.00
2022-11-24T05:23:37.083Z,4.00
2022-11-24T05:26:04.136Z,3.90
2022-11-24T05:28:30.903Z,3.90
2022-11-24T05:31:01.728Z,3.80
2022-11-24T05:33:29.999Z,3.80
2022-11-24T05:36:00.439Z,3.80
2022-11-24T05:38:27.126Z,3.80
2022-11-24T05:40:53.860Z,3.80
2022-11-24T05:43:20.508Z,3.80
2022-11-24T05:45:47.165Z,3.90
2022-11-24T05:48:14.885Z,3.90
2022-11-24T05:50:41.820Z,3.90
2022-11-24T05:53:09.880Z,4.00
2022-11-24T05:55:36.742Z,4.00
2022-11-24T05:58:04.488Z,4.10
2022-11-24T06:00:32.241Z,4.10
2022-11-24T06:02:59.098Z,4.10
2022-11-24T06:05:26.413Z,4.10
2022-11-24T06:07:53.434Z,4.10
2022-11-24T06:10:20.976Z,4.10
2022-11-24T06:12:47.921Z,4.10
2022-11-24T06:15:14.571Z,4.00
2022-11-24T06:17:41.332Z,4.00
2022-11-24T06:20:08.437Z,4.00
2022-11-24T06:22:35.183Z,4.00
2022-11-24T06:25:01.876Z,4.00
2022-11-24T06:27:28.569Z,3.90
2022-11-24T06:29:55.249Z,3.90
2022-11-24T06:32:22.012Z,3.80
2022-11-24T06:34:48.765Z,3.80
2022-11-24T06:37:15.508Z,3.70
2022-11-24T06:39:42.593Z,3.70
2022-11-24T06:42:09.347Z,3.70
2022-11-24T06:44:36.290Z,3.70
2022-11-24T06:47:03.171Z,3.60
2022-11-24T06:49:29.819Z,3.70
2022-11-24T06:52:00.928Z,3.60
2022-11-24T06:54:28.175Z,3.60
2022-11-24T06:56:58.631Z,3.60
2022-11-24T06:59:26.405Z,3.60
2022-11-24T07:01:53.265Z,3.60
2022-11-24T07:04:20.026Z,3.60
2022-11-24T07:06:46.738Z,3.60
2022-11-24T07:09:14.110Z,3.60
2022-11-24T07:11:41.042Z,3.60
2022-11-24T07:14:08.374Z,3.60
2022-11-24T07:16:35.967Z,3.60
2022-11-24T07:19:02.918Z,3.60
2022-11-24T07:21:30.769Z,3.50
2022-11-24T07:23:57.764Z,3.50
2022-11-24T07:26:25.126Z,3.40
2022-11-24T07:28:51.825Z,3.40
2022-11-24T07:31:20.178Z,3.40
2022-11-24T07:33:50.783Z,3.30
2022-11-24T07:36:17.644Z,3.40
2022-11-24T07:38:44.279Z,3.40
2022-11-24T07:41:11.647Z,3.50
2022-11-24T07:43:38.836Z,3.60
2022-11-24T07:46:06.606Z,3.70
2022-11-24T07:48:33.598Z,3.80
2022-11-24T07:51:00.914Z,4.00
2022-11-24T07:53:27.983Z,4.20
2022-11-24T07:55:58.089Z,4.40
2022-11-24T07:58:28.908Z,4.60
2022-11-24T08:00:58.625Z,4.90
2022-11-24T08:03:25.514Z,5.10
2022-11-24T08:06:16.456Z,5.30
2022-11-24T08:08:42.932Z,5.30
2022-11-24T08:11:10.842Z,5.40
2022-11-24T08:13:37.870Z,5.40
2022-11-24T08:16:08.544Z,5.50
2022-11-24T08:18:36.306Z,5.70
2022-11-24T08:21:03.402Z,5.70
2022-11-24T08:23:30.696Z,5.80
2022-11-24T08:26:00.509Z,5.90
2022-11-24T08:28:27.209Z,6.00
2022-11-24T08:30:53.940Z,6.10
2022-11-24T08:33:20.624Z,6.10
2022-11-24T08:35:47.261Z,6.20
2022-11-24T08:38:14.098Z,6.20
2022-11-24T08:40:40.842Z,6.20
2022-11-24T08:43:07.650Z,6.30
2022-11-24T08:45:39.729Z,6.40
2022-11-24T08:48:08.851Z,6.50
2022-11-24T08:50:37.460Z,6.70
2022-11-24T08:53:04.196Z,6.80
2022-11-24T08:55:30.935Z,7.00
2022-11-24T08:57:57.827Z,7.40
2022-11-24T09:00:24.470Z,8.30
2022-11-24T09:02:58.079Z,9.50
2022-11-24T09:05:50.753Z,11.10
2022-11-24T09:08:12.099Z,12.10
2022-11-24T09:10:38.857Z,12.10
2022-11-24T09:13:05.510Z,11.90
2022-11-24T09:15:32.239Z,11.80
2022-11-24T09:17:58.993Z,12.00
2022-11-24T09:20:25.644Z,12.90
2022-11-24T09:22:52.612Z,14.20
2022-11-24T09:25:19.266Z,15.40
2022-11-24T09:27:45.997Z,15.90
2022-11-24T09:30:13.012Z,15.80
2022-11-24T09:32:39.738Z,15.80
2022-11-24T09:35:07.318Z,16.00
2022-11-24T09:37:34.437Z,16.90
2022-11-24T09:40:01.163Z,18.00
2022-11-24T09:42:37.398Z,19.10
2022-11-24T09:45:13.441Z,19.70
2022-11-24T09:47:46.281Z,20.70
2022-11-24T09:50:12.955Z,20.90
2022-11-24T09:53:01.125Z,20.60
2022-11-24T09:55:27.809Z,19.90
2022-11-24T09:57:58.958Z,19.00
2022-11-24T10:00:25.666Z,17.90
2022-11-24T10:02:52.340Z,16.90
2022-11-24T10:05:19.457Z,16.00
2022-11-24T10:07:59.127Z,15.20
2022-11-24T10:10:29.828Z,14.50
2022-11-24T10:13:15.287Z,13.80
2022-11-24T10:15:42.739Z,13.50
2022-11-24T10:18:28.261Z,13.50
2022-11-24T10:20:54.946Z,13.50
2022-11-24T10:23:27.764Z,13.20
2022-11-24T10:25:57.116Z,12.90
2022-11-24T10:28:27.038Z,12.60
2022-11-24T10:30:58.120Z,12.30
2022-11-24T10:33:30.700Z,12.20
2022-11-24T10:36:03.622Z,12.10
2022-11-24T10:38:30.433Z,12.00
2022-11-24T10:41:03.240Z,11.90
2022-11-24T10:43:30.035Z,11.70
2022-11-24T10:46:05.329Z,11.60
2022-11-24T10:48:38.336Z,11.40
2022-11-24T10:51:29.623Z,11.30
2022-11-24T10:54:01.438Z,11.20
2022-11-24T10:56:38.375Z,11.10
2022-11-24T10:59:25.517Z,11.10
2022-11-24T11:01:53.062Z,10.90
2022-11-24T11:04:30.961Z,10.60
2022-11-24T11:07:07.796Z,10.50
2022-11-24T11:09:34.916Z,10.40
2022-11-24T11:12:35.751Z,10.30
2022-11-24T11:14:56.570Z,10.30
2022-11-24T11:17:31.399Z,10.30
2022-11-24T11:20:06.031Z,10.20
2022-11-24T11:22:34.963Z,10.20
2022-11-24T11:25:22.124Z,10.10
2022-11-24T11:27:49.111Z,9.90
2022-11-24T11:35:49.383Z,9.60
2022-11-24T11:38:16.033Z,9.60
2022-11-24T11:40:43.800Z,9.60
2022-11-24T11:43:19.189Z,9.60
2022-11-24T11:45:46.604Z,9.60
2022-11-24T11:48:15.180Z,9.60
2022-11-24T11:51:15.002Z,9.60
2022-11-24T11:53:32.002Z,9.70
2022-11-24T11:56:10.070Z,9.90
2022-11-24T11:58:43.134Z,10.10
2022-11-24T12:01:25.996Z,10.40
2022-11-24T12:04:11.308Z,10.50
2022-11-24T12:06:50.026Z,10.50
2022-11-24T12:09:35.667Z,10.50
2022-11-24T12:12:22.578Z,10.50
2022-11-24T12:14:52.314Z,10.30
2022-11-24T12:17:38.393Z,10.20
2022-11-24T12:20:08.281Z,10.20
2022-11-24T12:22:43.849Z,10.20
2022-11-24T12:25:28.717Z,10.20
2022-11-24T12:28:14.704Z,10.20
2022-11-24T12:30:45.310Z,10.10
2022-11-24T12:33:21.266Z,10.00
2022-11-24T12:36:04.356Z,9.90
2022-11-24T12:38:37.137Z,9.80
2022-11-24T12:41:42.763Z,9.70
2022-11-24T12:44:00.294Z,9.60
2022-11-24T12:46:45.512Z,9.50
2022-11-24T12:49:15.490Z,9.40
2022-11-24T12:51:43.427Z,9.40
2022-11-24T12:54:12.442Z,9.40
2022-11-24T12:56:42.350Z,9.40
2022-11-24T12:59:20.957Z,9.50
2022-11-24T13:02:02.440Z,9.50
2022-11-24T13:04:33.245Z,9.60
2022-11-24T13:07:00.204Z,9.60
2022-11-24T13:09:27.000Z,9.60
2022-11-24T13:11:57.887Z,9.60
2022-11-24T13:14:30.519Z,9.60
2022-11-24T13:19:43.889Z,9.60
2022-11-24T13:22:15.038Z,9.60
2022-11-24T13:24:42.164Z,9.50
2022-11-24T13:27:19.686Z,9.60
2022-11-24T13:29:49.820Z,9.60
2022-11-24T13:32:17.631Z,9.60
2022-11-24T13:34:45.601Z,9.60
2022-11-24T13:37:34.803Z,9.60
2022-11-24T13:40:11.888Z,9.60
2022-11-24T13:43:02.957Z,9.70
2022-11-24T13:45:38.872Z,9.70
2022-11-24T13:48:25.799Z,9.70
2022-11-24T13:50:58.241Z,9.70
2022-11-24T13:53:34.006Z,9.70
2022-11-24T13:56:05.705Z,9.70
2022-11-24T13:58:38.534Z,9.70
2022-11-24T14:01:25.414Z,9.60
2022-11-24T14:04:29.343Z,9.60
2022-11-24T14:06:57.679Z,9.50
2022-11-24T14:09:28.251Z,9.30
2022-11-24T14:12:04.042Z,9.30
2022-11-24T14:14:30.773Z,9.20
2022-11-24T14:17:12.836Z,9.10
2022-11-24T14:19:39.598Z,9.10
2022-11-24T14:22:06.345Z,9.00
2022-11-24T14:24:38.233Z,8.90
2022-11-24T14:27:13.484Z,8.90
2022-11-24T14:29:52.986Z,8.90
2022-11-24T14:32:22.079Z,8.80
2022-11-24T14:34:49.001Z,8.80
2022-11-24T14:37:15.808Z,8.80
2022-11-24T14:39:42.872Z,8.80
2022-11-24T14:42:20.432Z,8.80
2022-11-24T14:44:49.205Z,8.80
2022-11-24T14:47:38.561Z,8.80
2022-11-24T14:50:13.563Z,8.70
2022-11-24T14:52:55.145Z,8.70
2022-11-24T14:55:27.739Z,8.60
2022-11-24T14:57:54.805Z,8.60
2022-11-24T15:00:24.779Z,8.60
2022-11-24T15:02:55.427Z,8.60
2022-11-24T15:05:23.854Z,8.50
2022-11-24T15:07:52.121Z,8.50
2022-11-24T15:10:38.490Z,8.50
2022-11-24T15:13:06.678Z,8.40
2022-11-24T15:15:35.144Z,8.40
2022-11-24T15:18:03.122Z,8.40
2022-11-24T15:20:31.957Z,8.30
2022-11-24T15:23:17.984Z,8.30
2022-11-24T15:25:44.712Z,8.30
2022-11-24T15:28:12.013Z,8.20
2022-11-24T15:30:38.910Z,8.20
2022-11-24T15:33:15.861Z,8.10
2022-11-24T15:35:42.849Z,8.10
2022-11-24T15:38:09.970Z,8.10
2022-11-24T15:40:37.439Z,8.10
2022-11-24T15:43:14.502Z,8.10
2022-11-24T15:45:41.239Z,8.00
2022-11-24T15:48:08.197Z,8.00
2022-11-24T15:50:36.055Z,8.00
2022-11-24T15:53:03.593Z,8.00
2022-11-24T15:55:30.447Z,8.00
2022-11-24T15:57:57.188Z,7.90
2022-11-24T16:00:24.112Z,7.90
2022-11-24T16:02:50.883Z,7.90
2022-11-24T16:05:18.034Z,7.90
2022-11-24T16:07:44.848Z,7.90
2022-11-24T16:10:24.937Z,7.80
2022-11-24T16:12:51.587Z,7.80
2022-11-24T16:15:18.264Z,7.80
2022-11-24T16:17:44.986Z,7.80
2022-11-24T16:20:12.088Z,7.80
2022-11-24T16:22:38.748Z,7.80
2022-11-24T16:25:05.761Z,7.70
2022-11-24T16:27:32.441Z,7.70
2022-11-24T16:29:59.088Z,7.70
2022-11-24T16:32:25.736Z,7.70
2022-11-24T16:34:52.415Z,7.70
2022-11-24T16:37:20.925Z,7.70
2022-11-24T16:39:50.154Z,7.70
2022-11-24T16:42:17.291Z,7.70
2022-11-24T16:44:44.564Z,7.70
2022-11-24T16:47:12.933Z,7.70
2022-11-24T16:49:39.834Z,7.70
2022-11-24T16:52:08.448Z,7.70
2022-11-24T16:54:35.264Z,7.60
2022-11-24T16:57:02.329Z,7.60
2022-11-24T16:59:28.986Z,7.50
2022-11-24T17:01:55.837Z,7.50
2022-11-24T17:04:22.774Z,7.50
2022-11-24T17:06:49.494Z,7.40
2022-11-24T17:09:16.836Z,7.40
2022-11-24T17:11:43.684Z,7.30
2022-11-24T17:14:10.553Z,7.30
2022-11-24T17:16:37.597Z,7.20
2022-11-24T17:19:05.434Z,7.10
2022-11-24T17:21:32.365Z,7.10
2022-11-24T17:24:00.863Z,7.00
2022-11-24T17:26:27.780Z,6.90
2022-11-24T17:28:55.887Z,6.80
2022-11-24T17:31:31.887Z,6.70
2022-11-24T17:33:59.247Z,6.70
2022-11-24T17:36:26.522Z,6.60
2022-11-24T17:38:53.225Z,6.70
2022-11-24T17:41:20.352Z,6.60
2022-11-24T17:43:55.469Z,6.60
2022-11-24T17:46:22.967Z,6.60
2022-11-24T17:48:49.755Z,6.70
2022-11-24T17:51:21.137Z,6.70
2022-11-24T17:53:49.374Z,6.70
2022-11-24T17:56:20.432Z,6.70
2022-11-24T17:58:47.336Z,6.80
2022-11-24T18:01:14.320Z,6.80
2022-11-24T18:03:41.917Z,6.80
2022-11-24T18:06:09.534Z,6.80
2022-11-24T18:08:36.950Z,6.80
2022-11-24T18:11:07.928Z,6.80
2022-11-24T18:13:55.756Z,6.80
2022-11-24T18:16:21.776Z,6.90
2022-11-24T18:18:50.947Z,6.90
2022-11-24T18:21:17.942Z,6.90
2022-11-24T18:23:44.828Z,6.90
2022-11-24T18:26:14.841Z,6.90
2022-11-24T18:28:42.292Z,6.90
2022-11-24T18:31:10.341Z,6.90
2022-11-24T18:33:37.729Z,7.00
2022-11-24T18:36:06.465Z,6.90
2022-11-24T18:38:39.109Z,6.90
2022-11-24T18:41:06.425Z,6.90
2022-11-24T18:43:34.958Z,6.90
2022-11-24T18:46:07.688Z,7.00
2022-11-24T18:48:34.674Z,6.90
2022-11-24T18:51:01.655Z,6.90
2022-11-24T18:53:29.327Z,6.90
2022-11-24T18:55:57.132Z,6.90
2022-11-24T18:58:24.907Z,6.90
2022-11-24T19:00:52.283Z,6.90
2022-11-24T19:03:19.230Z,6.90
2022-11-24T19:05:45.965Z,7.00
2022-11-24T19:08:12.664Z,7.00
2022-11-24T19:10:39.742Z,7.00
2022-11-24T19:13:06.416Z,7.00
2022-11-24T19:15:34.260Z,7.10
2022-11-24T19:18:01.333Z,7.00
2022-11-24T19:20:28.336Z,7.10
2022-11-24T19:22:55.031Z,7.00
2022-11-24T19:25:21.723Z,7.00
2022-11-24T19:27:48.566Z,6.90
2022-11-24T19:30:16.167Z,6.90
2022-11-24T19:32:42.871Z,6.90
2022-11-24T19:35:09.905Z,6.90
2022-11-24T19:37:37.118Z,6.90
2022-11-24T19:40:04.569Z,6.90
2022-11-24T19:42:31.300Z,6.90
2022-11-24T19:44:57.932Z,6.90
2022-11-24T19:47:24.621Z,6.90
2022-11-24T19:49:51.338Z,6.90
2022-11-24T19:52:17.989Z,6.90
2022-11-24T19:54:44.680Z,6.80
2022-11-24T19:57:11.331Z,6.80
2022-11-24T19:59:38.011Z,6.80
2022-11-24T20:02:04.818Z,6.80
2022-11-24T20:04:33.594Z,6.70
2022-11-24T20:07:01.197Z,6.70
2022-11-24T20:09:28.477Z,6.70
2022-11-24T20:11:55.210Z,6.70
2022-11-24T20:14:22.098Z,6.70
2022-11-24T20:16:48.919Z,6.70
2022-11-24T20:19:16.431Z,6.70
2022-11-24T20:21:47.786Z,6.70
2022-11-24T20:24:16.260Z,6.60
2022-11-24T20:26:45.345Z,6.70
2022-11-24T20:29:13.102Z,6.70
2022-11-24T20:31:41.407Z,6.60
2022-11-24T20:34:08.422Z,6.60
2022-11-24T20:36:36.417Z,6.70
2022-11-24T20:39:05.185Z,6.60
2022-11-24T20:41:33.769Z,6.60
2022-11-24T20:44:04.834Z,6.60
2022-11-24T20:46:32.398Z,6.60
2022-11-24T20:49:00.047Z,6.50
2022-11-24T20:51:28.917Z,6.60
2022-11-24T20:53:57.773Z,6.50
2022-11-24T20:56:25.888Z,6.50
2022-11-24T20:58:52.812Z,6.50
2022-11-24T21:01:20.682Z,6.50
2022-11-24T21:03:51.189Z,6.50
2022-11-24T21:06:17.901Z,6.40
2022-11-24T21:08:44.592Z,6.40
2022-11-24T21:11:12.680Z,6.40
2022-11-24T21:13:40.136Z,6.30
2022-11-24T21:16:14.050Z,6.30
2022-11-24T21:18:41.060Z,6.20
2022-11-24T21:21:07.739Z,6.20
2022-11-24T21:23:34.463Z,6.20
2022-11-24T21:26:05.390Z,6.10
2022-11-24T21:28:32.645Z,6.10
2022-11-24T21:31:05.927Z,6.10
2022-11-24T21:33:32.980Z,6.10
2022-11-24T21:36:03.549Z,6.10
2022-11-24T21:38:30.721Z,6.10
2022-11-24T21:41:01.194Z,6.10
2022-11-24T21:43:29.406Z,6.10
2022-11-24T21:46:09.002Z,6.10
2022-11-24T21:48:36.334Z,6.10
2022-11-24T21:51:04.100Z,6.10
2022-11-24T21:53:32.142Z,6.10
2022-11-24T21:56:00.240Z,6.10
2022-11-24T21:58:27.774Z,6.10
2022-11-24T22:00:55.080Z,6.10
2022-11-24T22:03:21.953Z,6.10
2022-11-24T22:05:58.526Z,6.10
2022-11-24T22:08:25.866Z,6.10
2022-11-24T22:10:52.555Z,6.10
2022-11-24T22:13:19.663Z,6.00
2022-11-24T22:15:46.430Z,6.10
2022-11-24T22:18:13.112Z,6.10
2022-11-24T22:20:39.809Z,6.10
2022-11-24T22:23:06.467Z,6.10
2022-11-24T22:25:33.424Z,6.20
2022-11-24T22:28:00.304Z,6.20
2022-11-24T22:30:26.949Z,6.30
2022-11-24T22:32:54.165Z,6.30
2022-11-24T22:35:20.990Z,6.40
2022-11-24T22:37:47.862Z,6.40
2022-11-24T22:40:14.667Z,6.40
2022-11-24T22:42:41.401Z,6.40
2022-11-24T22:45:08.329Z,6.40
2022-11-24T22:47:35.220Z,6.30
2022-11-24T22:50:01.945Z,6.20
2022-11-24T22:52:28.729Z,6.10
2022-11-24T22:54:55.385Z,6.00
2022-11-24T22:57:22.149Z,6.00
2022-11-24T22:59:48.985Z,5.90
2022-11-24T23:02:15.685Z,5.80
2022-11-24T23:04:42.362Z,5.70
2022-11-24T23:07:09.686Z,5.60
2022-11-24T23:09:36.531Z,5.50
2022-11-24T23:12:03.349Z,5.40
2022-11-24T23:14:30.078Z,5.30
2022-11-24T23:16:56.789Z,5.20
2022-11-24T23:19:23.440Z,5.20
2022-11-24T23:21:50.129Z,5.10
2022-11-24T23:24:16.961Z,5.00
2022-11-24T23:26:43.594Z,4.90
2022-11-24T23:29:10.655Z,4.90
2022-11-24T23:31:39.928Z,4.80
2022-11-24T23:34:06.851Z,4.80
2022-11-24T23:36:33.571Z,4.80
2022-11-24T23:39:04.076Z,4.70
2022-11-24T23:41:31.620Z,4.60
2022-11-24T23:43:58.440Z,4.60
2022-11-24T23:46:25.652Z,4.50
2022-11-24T23:48:53.264Z,4.50
2022-11-24T23:51:24.686Z,4.40
2022-11-24T23:53:51.785Z,4.40
2022-11-24T23:56:19.821Z,4.40
2022-11-24T23:58:46.962Z,4.40
